createdAt,value
2023-05-18T00:00:14.316Z,12.52
2023-05-18T00:02:43.019Z,13.90
2023-05-18T00:05:11.714Z,12.70
2023-05-18T00:07:41.190Z,9.50
2023-05-18T00:10:11.460Z,10.55
2023-05-18T00:12:39.905Z,12.52
2023-05-18T00:15:11.556Z,11.77
2023-05-18T00:17:39.931Z,16.40
2023-05-18T00:20:10.395Z,9.98
2023-05-18T00:22:39.323Z,12.80
2023-05-18T00:25:07.929Z,13.13
2023-05-18T00:27:36.474Z,12.32
2023-05-18T00:30:06.535Z,12.18
2023-05-18T00:32:36.354Z,12.00
2023-05-18T00:35:05.230Z,12.32
2023-05-18T00:37:33.616Z,15.35
2023-05-18T00:40:01.947Z,14.85
2023-05-18T00:42:30.402Z,7.88
2023-05-18T00:44:58.855Z,12.18
2023-05-18T00:47:27.659Z,9.85
2023-05-18T00:49:57.393Z,9.35
2023-05-18T00:52:26.311Z,8.75
2023-05-18T00:54:55.137Z,8.40
2023-05-18T00:57:23.519Z,16.27
2023-05-18T00:59:52.297Z,10.40
2023-05-18T01:02:21.237Z,11.75
2023-05-18T01:04:49.711Z,9.48
2023-05-18T01:07:23.228Z,9.73
2023-05-18T01:09:51.592Z,8.77
2023-05-18T01:12:26.118Z,11.32
2023-05-18T01:15:01.969Z,11.05
2023-05-18T01:17:36.662Z,12.82
2023-05-18T01:20:20.427Z,9.60
2023-05-18T01:23:11.976Z,10.68
2023-05-18T01:25:49.550Z,12.32
2023-05-18T01:28:22.267Z,11.07
2023-05-18T01:30:52.040Z,8.05
2023-05-18T01:33:20.537Z,9.30
2023-05-18T01:35:49.103Z,10.38
2023-05-18T01:38:18.983Z,8.48
2023-05-18T01:40:58.030Z,9.48
2023-05-18T01:43:35.448Z,12.27
2023-05-18T01:46:11.945Z,7.68
2023-05-18T01:48:43.789Z,12.63
2023-05-18T01:51:16.523Z,9.10
2023-05-18T01:53:47.972Z,10.75
2023-05-18T01:56:16.754Z,12.52
2023-05-18T01:58:46.640Z,10.70
2023-05-18T02:01:16.223Z,12.02
2023-05-18T02:03:45.521Z,12.52
2023-05-18T02:06:13.898Z,11.30
2023-05-18T02:08:42.207Z,10.00
2023-05-18T02:11:10.936Z,11.10
2023-05-18T02:13:39.269Z,9.75
2023-05-18T02:16:10.935Z,8.52
2023-05-18T02:18:39.973Z,13.48
2023-05-18T02:21:09.483Z,13.15
2023-05-18T02:23:37.907Z,13.27
2023-05-18T02:26:06.389Z,9.05
2023-05-18T02:28:34.902Z,9.07
2023-05-18T02:31:08.993Z,5.90
2023-05-18T02:33:40.044Z,11.75
2023-05-18T02:36:12.408Z,9.73
2023-05-18T02:38:42.285Z,10.70
2023-05-18T02:41:12.158Z,5.47
2023-05-18T02:43:40.629Z,10.35
2023-05-18T02:46:10.409Z,7.65
2023-05-18T02:48:38.921Z,8.75
2023-05-18T02:51:07.377Z,8.40
2023-05-18T02:53:35.822Z,8.63
2023-05-18T02:56:04.971Z,9.85
2023-05-18T02:58:33.563Z,9.57
2023-05-18T03:01:03.649Z,8.18
2023-05-18T03:03:33.774Z,10.20
2023-05-18T03:06:02.658Z,8.55
2023-05-18T03:08:31.597Z,8.98
2023-05-18T03:11:00.495Z,10.80
2023-05-18T03:13:28.825Z,8.48
2023-05-18T03:15:57.783Z,14.13
2023-05-18T03:18:26.588Z,8.07
2023-05-18T03:20:56.350Z,11.02
2023-05-18T03:23:24.787Z,12.10
2023-05-18T03:25:54.392Z,9.35
2023-05-18T03:28:23.320Z,6.93
2023-05-18T03:30:51.865Z,5.85
2023-05-18T03:33:20.372Z,12.02
2023-05-18T03:35:52.468Z,7.18
2023-05-18T03:38:22.464Z,11.18
2023-05-18T03:40:50.955Z,13.63
2023-05-18T03:43:19.314Z,10.82
2023-05-18T03:45:47.895Z,10.93
2023-05-18T03:48:16.384Z,9.80
2023-05-18T03:50:44.993Z,8.85
2023-05-18T03:53:13.425Z,6.07
2023-05-18T03:55:43.327Z,9.13
2023-05-18T03:58:11.665Z,8.75
2023-05-18T04:00:40.655Z,10.82
2023-05-18T04:03:12.515Z,10.95
2023-05-18T04:05:42.906Z,5.82
2023-05-18T04:08:14.412Z,8.50
2023-05-18T04:10:44.666Z,8.75
2023-05-18T04:13:13.332Z,6.13
2023-05-18T04:15:42.043Z,12.05
2023-05-18T04:18:11.042Z,6.82
2023-05-18T04:20:39.404Z,9.18
2023-05-18T04:23:09.745Z,8.57
2023-05-18T04:25:39.625Z,7.93
2023-05-18T04:28:10.202Z,9.82
2023-05-18T04:30:38.995Z,7.80
2023-05-18T04:33:07.761Z,10.35
2023-05-18T04:35:36.440Z,12.00
2023-05-18T04:38:05.337Z,10.10
2023-05-18T04:40:34.594Z,7.13
2023-05-18T04:43:04.065Z,4.65
2023-05-18T04:45:34.445Z,6.68
2023-05-18T04:48:04.053Z,8.98
2023-05-18T04:50:32.428Z,5.55
2023-05-18T04:53:02.545Z,4.82
2023-05-18T04:55:31.592Z,8.27
2023-05-18T04:58:01.390Z,11.82
2023-05-18T05:00:30.965Z,6.72
2023-05-18T05:03:01.188Z,5.05
2023-05-18T05:05:30.725Z,8.55
2023-05-18T05:07:59.934Z,5.97
2023-05-18T05:10:29.209Z,7.05
2023-05-18T05:12:57.565Z,8.77
2023-05-18T05:15:26.007Z,15.23
2023-05-18T05:17:54.499Z,7.30
2023-05-18T05:20:24.406Z,6.72
2023-05-18T05:22:52.824Z,6.88
2023-05-18T05:25:21.619Z,4.50
2023-05-18T05:27:50.002Z,7.18
2023-05-18T05:30:18.391Z,5.93
2023-05-18T05:32:46.906Z,4.03
2023-05-18T05:35:15.475Z,6.63
2023-05-18T05:37:45.409Z,6.30
2023-05-18T05:40:14.100Z,5.18
2023-05-18T05:42:44.176Z,5.47
2023-05-18T05:45:15.090Z,3.75
2023-05-18T05:47:43.555Z,7.03
2023-05-18T05:50:12.279Z,7.60
2023-05-18T05:52:40.786Z,6.78
2023-05-18T05:55:10.759Z,3.38
2023-05-18T05:57:42.627Z,8.65
2023-05-18T06:00:12.888Z,7.85
2023-05-18T06:02:41.655Z,4.45
2023-05-18T06:05:10.912Z,2.83
2023-05-18T06:07:39.329Z,9.18
2023-05-18T06:10:08.791Z,3.72
2023-05-18T06:12:38.533Z,5.78
2023-05-18T06:15:07.795Z,4.18
2023-05-18T06:17:36.298Z,4.28
2023-05-18T06:20:07.036Z,4.35
2023-05-18T06:22:36.397Z,5.82
2023-05-18T06:25:05.416Z,10.07
2023-05-18T06:27:35.015Z,5.18
2023-05-18T06:30:05.664Z,9.02
2023-05-18T06:32:34.381Z,4.28
2023-05-18T06:35:03.095Z,8.52
2023-05-18T06:37:31.884Z,6.88
2023-05-18T06:40:00.591Z,6.30
2023-05-18T06:42:29.326Z,6.88
2023-05-18T06:44:58.142Z,3.72
2023-05-18T06:47:27.983Z,6.25
2023-05-18T06:49:56.934Z,5.53
2023-05-18T06:52:27.031Z,5.40
2023-05-18T06:54:55.916Z,5.30
2023-05-18T06:57:24.539Z,6.28
2023-05-18T06:59:53.912Z,7.45
2023-05-18T07:02:22.639Z,6.93
2023-05-18T07:04:55.585Z,7.22
2023-05-18T07:07:24.280Z,8.77
2023-05-18T07:09:54.914Z,8.02
2023-05-18T07:12:23.388Z,9.68
2023-05-18T07:14:51.944Z,10.13
2023-05-18T07:17:20.651Z,8.95
2023-05-18T07:19:49.148Z,19.63
2023-05-18T07:22:19.305Z,9.13
2023-05-18T07:24:47.941Z,6.53
2023-05-18T07:27:16.553Z,5.88
2023-05-18T07:29:45.255Z,5.72
2023-05-18T07:32:13.846Z,8.60
2023-05-18T07:34:43.705Z,9.02
2023-05-18T07:37:12.104Z,14.52
2023-05-18T07:39:41.874Z,14.38
2023-05-18T07:42:11.750Z,12.05
2023-05-18T07:44:40.187Z,16.45
2023-05-18T07:47:08.774Z,13.10
2023-05-18T07:49:39.117Z,10.60
2023-05-18T07:52:11.491Z,16.90
2023-05-18T07:54:41.325Z,13.40
2023-05-18T07:57:09.705Z,11.27
2023-05-18T07:59:38.139Z,15.38
2023-05-18T08:02:06.613Z,13.27
2023-05-18T08:04:35.185Z,11.77
2023-05-18T08:07:05.176Z,9.85
2023-05-18T08:09:33.660Z,6.75
2023-05-18T08:12:03.494Z,5.70
2023-05-18T08:14:35.058Z,9.75
2023-05-18T08:17:05.131Z,9.38
2023-05-18T08:19:33.686Z,7.50
2023-05-18T08:22:02.208Z,7.15
2023-05-18T08:24:30.633Z,8.60
2023-05-18T08:26:58.995Z,8.52
2023-05-18T08:29:28.738Z,5.20
2023-05-18T08:31:57.064Z,6.97
2023-05-18T08:34:25.973Z,6.43
2023-05-18T08:36:54.611Z,3.42
2023-05-18T08:39:23.626Z,4.07
2023-05-18T08:41:58.732Z,4.05
2023-05-18T08:44:39.897Z,5.85
2023-05-18T08:47:11.534Z,7.43
2023-05-18T08:49:41.727Z,12.00
2023-05-18T08:52:10.887Z,5.95
2023-05-18T08:54:39.671Z,6.18
2023-05-18T08:57:10.651Z,9.30
2023-05-18T08:59:43.285Z,5.20
2023-05-18T09:02:11.818Z,7.40
2023-05-18T09:04:42.605Z,6.55
2023-05-18T09:07:13.510Z,9.95
2023-05-18T09:09:42.657Z,11.02
2023-05-18T09:12:14.194Z,6.50
2023-05-18T09:14:44.682Z,6.93
2023-05-18T09:17:13.261Z,6.70
2023-05-18T09:19:41.808Z,7.28
2023-05-18T09:22:10.154Z,8.18
2023-05-18T09:24:39.110Z,6.95
2023-05-18T09:27:07.694Z,5.78
2023-05-18T09:29:36.164Z,7.85
2023-05-18T09:32:11.877Z,6.75
2023-05-18T09:34:45.545Z,6.20
2023-05-18T09:37:17.127Z,6.38
2023-05-18T09:39:45.541Z,6.57
2023-05-18T09:42:13.970Z,8.45
2023-05-18T09:44:43.039Z,5.32
2023-05-18T09:47:12.868Z,7.03
2023-05-18T09:49:42.211Z,8.13
2023-05-18T09:52:10.966Z,4.50
2023-05-18T09:54:39.367Z,11.40
2023-05-18T09:57:11.174Z,8.20
2023-05-18T09:59:40.352Z,8.30
2023-05-18T10:02:12.258Z,6.93
2023-05-18T10:04:43.480Z,7.25
2023-05-18T10:07:13.599Z,6.68
2023-05-18T10:09:42.667Z,4.32
2023-05-18T10:12:15.793Z,4.47
2023-05-18T10:14:46.090Z,8.13
2023-05-18T10:17:16.690Z,6.72
2023-05-18T10:19:49.606Z,11.15
2023-05-18T10:22:19.673Z,8.38
2023-05-18T10:24:52.371Z,6.53
2023-05-18T10:27:25.508Z,8.32
2023-05-18T10:29:55.274Z,4.32
2023-05-18T10:32:26.492Z,9.13
2023-05-18T10:34:57.628Z,3.33
2023-05-18T10:37:30.699Z,7.50
2023-05-18T10:40:01.112Z,5.90
2023-05-18T10:42:31.942Z,6.07
2023-05-18T10:45:01.804Z,4.25
2023-05-18T10:47:32.118Z,6.43
2023-05-18T10:50:05.250Z,3.67
2023-05-18T10:56:57.784Z,8.95
2023-05-18T11:04:10.568Z,3.78
2023-05-18T11:15:23.954Z,5.78
2023-05-18T11:26:30.227Z,5.68
2023-05-18T11:38:09.690Z,4.63
2023-05-18T11:40:48.007Z,5.20
2023-05-18T11:47:48.807Z,5.38
2023-05-18T13:50:07.041Z,7.45
2023-05-18T13:53:21.834Z,7.72
2023-05-18T13:56:35.659Z,8.15
2023-05-18T14:00:20.952Z,8.02
2023-05-18T14:03:11.916Z,5.30
2023-05-18T14:06:32.328Z,11.43
2023-05-18T14:10:25.992Z,7.53
2023-05-18T14:14:02.981Z,7.30
2023-05-18T14:20:56.665Z,9.05
2023-05-18T14:24:36.713Z,6.03
2023-05-18T14:38:44.432Z,6.57
2023-05-18T14:42:06.141Z,9.50
2023-05-18T14:45:56.545Z,9.15
2023-05-18T14:49:26.589Z,9.00
2023-05-18T14:52:32.610Z,6.53
2023-05-18T14:55:55.349Z,8.88
2023-05-18T14:59:10.172Z,6.75
2023-05-18T15:02:56.272Z,10.23
2023-05-18T15:06:18.187Z,9.10
2023-05-18T15:09:29.552Z,7.22
2023-05-18T15:16:17.817Z,10.15
2023-05-18T15:23:19.585Z,13.32
2023-05-18T15:26:57.241Z,6.93
2023-05-18T15:30:30.113Z,7.80
2023-05-18T15:35:00.670Z,7.03
2023-05-18T15:37:20.954Z,9.30
2023-05-18T15:40:40.340Z,9.68
2023-05-18T15:43:57.094Z,7.88
2023-05-18T15:50:23.078Z,6.10
2023-05-18T15:56:45.769Z,5.75
2023-05-18T16:00:10.303Z,5.63
2023-05-18T16:03:26.719Z,7.53
2023-05-18T16:06:28.864Z,7.60
2023-05-18T16:15:11.521Z,7.35
2023-05-18T16:18:41.372Z,7.85
2023-05-18T16:25:06.479Z,6.75
2023-05-18T16:28:11.268Z,5.57
2023-05-18T16:31:26.008Z,5.15
2023-05-18T16:42:12.573Z,8.95
2023-05-18T16:48:44.511Z,6.75
2023-05-18T16:52:05.416Z,5.80
2023-05-18T16:55:12.549Z,3.88
2023-05-18T16:58:26.273Z,10.27
2023-05-18T17:06:22.086Z,6.65
2023-05-18T17:06:45.151Z,6.90
2023-05-18T17:17:03.193Z,11.95
2023-05-18T17:21:24.883Z,5.95
2023-05-18T17:24:36.538Z,7.28
2023-05-18T17:28:21.701Z,4.00
2023-05-18T17:31:44.586Z,5.05
2023-05-18T17:35:08.489Z,15.85
2023-05-18T17:42:01.514Z,3.22
2023-05-18T17:48:25.323Z,4.30
2023-05-18T17:58:44.151Z,2.38
2023-05-18T18:01:45.427Z,8.00
2023-05-18T18:05:17.983Z,4.15
2023-05-18T18:08:47.108Z,8.02
2023-05-18T18:11:57.389Z,4.35
2023-05-18T18:15:49.551Z,4.55
2023-05-18T18:22:50.761Z,6.63
2023-05-18T18:25:55.215Z,9.90
2023-05-18T18:28:56.937Z,6.57
2023-05-18T18:32:03.222Z,4.47
2023-05-18T18:35:18.398Z,7.20
2023-05-18T18:38:54.207Z,7.50
2023-05-18T18:45:48.651Z,3.92
2023-05-18T18:48:56.875Z,6.10
2023-05-18T18:52:55.298Z,5.78
2023-05-18T18:57:07.754Z,5.10
2023-05-18T19:00:55.850Z,11.35
2023-05-18T19:04:02.218Z,13.73
2023-05-18T19:07:17.140Z,7.88
2023-05-18T19:14:12.772Z,6.60
2023-05-18T19:19:59.809Z,4.72
2023-05-18T19:20:34.987Z,6.25
2023-05-18T19:23:36.194Z,6.35
2023-05-18T19:26:35.157Z,4.25
2023-05-18T19:33:10.577Z,7.60
2023-05-18T19:36:47.464Z,9.95
2023-05-18T19:40:31.706Z,5.72
2023-05-18T19:43:46.893Z,7.57
2023-05-18T19:47:00.281Z,9.18
2023-05-18T19:50:16.261Z,6.10
2023-05-18T19:53:38.785Z,6.13
2023-05-18T19:56:52.841Z,9.52
2023-05-18T20:00:57.289Z,7.85
2023-05-18T20:04:41.692Z,6.78
2023-05-18T20:07:41.854Z,9.13
2023-05-18T20:14:05.000Z,7.75
2023-05-18T20:14:57.338Z,4.78
2023-05-18T20:21:35.040Z,9.23
2023-05-18T20:24:47.249Z,12.00
2023-05-18T20:27:52.573Z,7.68
2023-05-18T20:31:11.857Z,8.52
2023-05-18T20:38:40.121Z,17.52
2023-05-18T20:42:26.020Z,14.80
2023-05-18T20:45:43.745Z,9.43
2023-05-18T20:52:20.065Z,13.52
2023-05-18T20:55:23.588Z,17.08
2023-05-18T20:58:29.973Z,14.75
2023-05-18T21:01:40.066Z,18.20
2023-05-18T21:04:57.013Z,36.13
2023-05-18T21:11:37.979Z,21.15
2023-05-18T21:15:03.324Z,14.02
2023-05-18T21:18:15.744Z,16.60
2023-05-18T21:25:07.787Z,12.52
2023-05-18T21:28:19.204Z,16.00
2023-05-18T21:34:57.465Z,14.20
2023-05-18T21:47:52.680Z,15.85
2023-05-18T21:51:20.104Z,14.40
2023-05-18T21:54:32.898Z,16.35
2023-05-18T21:57:51.310Z,18.33
2023-05-18T22:01:01.891Z,20.88
2023-05-18T22:07:49.769Z,20.38
2023-05-18T22:10:56.824Z,14.43
2023-05-18T22:14:17.625Z,17.95
2023-05-18T22:17:24.603Z,19.25
2023-05-18T22:20:26.794Z,18.67
2023-05-18T22:27:29.373Z,16.50
2023-05-18T22:30:46.771Z,15.60
2023-05-18T22:34:13.681Z,16.20
2023-05-18T22:47:39.198Z,18.48
2023-05-18T22:50:40.619Z,14.23
2023-05-18T22:54:06.155Z,18.70
2023-05-18T22:57:55.280Z,17.95
2023-05-18T23:01:10.908Z,24.38
2023-05-18T23:07:43.411Z,19.55
2023-05-18T23:10:46.265Z,21.40
2023-05-18T23:14:10.866Z,21.40
2023-05-18T23:24:21.800Z,22.17
2023-05-18T23:27:31.307Z,22.27
2023-05-18T23:30:45.588Z,22.48
2023-05-18T23:34:01.891Z,32.95
2023-05-18T23:43:58.088Z,27.67
2023-05-18T23:50:22.494Z,27.05
2023-05-18T23:53:59.828Z,28.42
2023-05-18T23:57:06.663Z,23.23
